KSSC

Shaw AFB Airport

Sumter, South Carolina, USA
TAF KSSC 170000Z 1700/1806 25007KT 9999 SKC QNH3017INS BECMG 1706/1707 VRB04KT 9999 SCT250 QNH3022INS BECMG 1719/1720 VRB06KT 9999 FEW040 SCT250 QNH3012INS BECMG 1805/1806 VRB06KT 9999 BKN030 QNH3010INS TX14/1720Z TN01/1711Z
Issued Valid From Valid To
Jan-17 @ 00:00 UTC
(5 hours ago)
Jan-17 @ 00:00 UTC
(5 hours ago)
Jan-18 @ 06:00 UTC
(-1 days ago)
Jan-17 @ 00:00 to Jan-17 @ 06:00
TAF KSSC 170000Z 1700/1806 25007KT 9999 SKC QNH3017INS
Wind Visibility Clouds Readings
250° at 7 knots Greater than 6 miles
  • Clear skies
Altimeter 30.18" Hg
Pressure 1021.92 hPa
Becoming Jan-17 @ 06:00 to Jan-17 @ 19:00
BECMG 1706/1707 VRB04KT 9999 SCT250 QNH3022INS
Wind Visibility Clouds Readings
Variable at 4 knots Greater than 6 miles
  • Scattered at 25,000' AGL
Altimeter 30.21" Hg
Pressure 1022.92 hPa
Becoming Jan-17 @ 19:00 to Jan-18 @ 05:00
BECMG 1719/1720 VRB06KT 9999 FEW040 SCT250 QNH3012INS
Wind Visibility Clouds Readings
Variable at 6 knots Greater than 6 miles
  • Few at 4,000' AGL
  • Scattered at 25,000' AGL
Altimeter 30.12" Hg
Pressure 1019.92 hPa
Becoming Jan-18 @ 05:00 to Jan-18 @ 06:00
BECMG 1805/1806 VRB06KT 9999 BKN030 QNH3010INS TX14/1720Z TN01/1711Z
Wind Visibility Clouds Readings
Variable at 6 knots Greater than 6 miles
  • Broken at 3,000' AGL
Altimeter 30.09" Hg
Pressure 1018.92 hPa
TAF KSSC 170000Z 1700/1806 25007KT 9999 SKC QNH3017INS BECMG 1706/1707 VRB04KT 9999 SCT250 QNH3022INS BECMG 1719/1720 VRB06KT 9999 FEW040 SCT250 QNH3012INS BECMG 1805/1806 VRB06KT 9999 BKN030 QNH3010INS TX14/1720Z TN01/1711Z
Issued Jan-17 @ 00:00 UTC
(5 hours ago)
Valid From Jan-17 @ 00:00 UTC
(5 hours ago)
Valid To Jan-18 @ 06:00 UTC
(-1 days ago)
Jan-17 @ 00:00 - Jan-17 @ 06:00
Wind Visibility
250° at 7 knots Greater than 6 miles
Clouds
  • Clear skies
Becoming Jan-17 @ 06:00 - Jan-17 @ 19:00
Wind Visibility
Variable at 4 knots Greater than 6 miles
Clouds
  • Scattered at 25,000' AGL
Becoming Jan-17 @ 19:00 - Jan-18 @ 05:00
Wind Visibility
Variable at 6 knots Greater than 6 miles
Clouds
  • Few at 4,000' AGL
  • Scattered at 25,000' AGL
Becoming Jan-18 @ 05:00 - Jan-18 @ 06:00
Wind Visibility
Variable at 6 knots Greater than 6 miles
Clouds
  • Broken at 3,000' AGL